Terminal Aerodrome Forecast
Issued by NWS Charleston, WV

Current Version | Previous Version | Graphics & Text | Print | Product List | Glossary On
Versions: 1 2 3 4 5 6 7 8 9 10 11 12 13 14 15 16 17 18 19 20 21 22 23 24 25 26 27 28 29
000
FTUS41 KRLX 291700
TAFPKB
TAF
KPKB 291738Z 2918/3018 32006KT P6SM BKN035
     FM300000 00000KT P6SM BKN050
     FM300500 00000KT 5SM BR BKN050
     FM300900 00000KT 1 1/2SM BR BKN040
     FM301200 00000KT 4SM BR BKN035
     FM301400 24004KT 6SM BR BKN025
     FM301600 26006KT P6SM BKN035
      AMD NOT SKED=

USA.gov is the U.S. government's official web portal to all federal, state and local government web resources and services.